Berkley, MI

4:01 AM EDT on September 04, 2015 (GMT -0400)
N Crooks / W Maple | | Change Station
CLOSE
Current Station
Personal Weather Station
Location: Clawson, MI
Elevation: 702 ft
Nearby Weather Stations

Elev 702 ft 42.55 °N, 83.16 °W | Updated 1 minute ago

Overcast
Overcast
68.3 °F
Feels Like 68.3 °F
N
1.0
Wind Variable Wind from SW
Gusts 1.0 mph

Today
High -- | Low -- °F
--% Chance of Precip.
Yesterday
High -- | Low -- °F
Precip. -- in
7:00 AM 8:02 PM
Waning Gibbous, 62% visible
Pressure 29.98 in
Visibility 7.0 miles
Clouds Mostly Cloudy 600 ft
Mostly Cloudy 5500 ft
Overcast 7000 ft
Dew Point 66 °F
Humidity 91%
Rainfall 0.13 in
Snow Depth Not available.
UV 0 out of 12
Pollen 7.20 out of 12
Air Quality Not available.
Flu Activity Not available.
METAR KVLL 040755Z AUTO 20004KT 7SM BKN006 BKN055 OVC070 21/20 A2998 RMK AO2 T02060201
Pressure 29.98 in
Visibility 7.0 miles
Clouds Mostly Cloudy 600 ft
Mostly Cloudy 5500 ft
Overcast 7000 ft
Dew Point 66 °F
Humidity 91%
Rainfall 0.13 in
Snow Depth Not available.
UV 0 out of 12
Pollen 7.20 out of 12
Air Quality Not available.
Flu Activity Not available.
METAR KVLL 040755Z AUTO 20004KT 7SM BKN006 BKN055 OVC070 21/20 A2998 RMK AO2 T02060201

10-Day Weather Forecast

×

Almanac

Astronomy

Sep. 04, 2015 Rise Set
Actual Time
Civil Twilight
Nautical Twilight
Astronomical Twilight
Moon
Length of Visible Light
Length of Day
Tomorrow will be .
, % of the Moon is Illuminated

Today's Extremes

State Highs State Lows

Community

WunderPhotos

Upload Photos

1,852,141 photos uploaded!

WunderBlogs® & News

Nearby

Air Quality

  Air Quality AQ Index Pollutant
Not available.

Snow Depth

Station Depth Elevation

Earthquake Activity

City Distance Mag. Time & Date
Minimum magnitude displayed is 2.5.

Coastal Water Temperatures

Place Temperature

Stations

Nearby Weather Stations

Station Location Temp. Windchill Dew Point Humidity Wind Precip. Elev Updated Type